createdAt,value
2023-05-14T00:00:13.870Z,11.68
2023-05-14T00:03:41.837Z,11.84
2023-05-14T00:07:07.468Z,11.87
2023-05-14T00:10:32.632Z,11.78
2023-05-14T00:13:57.527Z,11.94
2023-05-14T00:17:25.567Z,11.79
2023-05-14T00:20:55.586Z,11.69
2023-05-14T00:24:21.204Z,11.74
2023-05-14T00:27:45.845Z,11.63
2023-05-14T00:31:10.120Z,11.75
2023-05-14T00:34:36.172Z,11.50
2023-05-14T00:38:01.324Z,11.62
2023-05-14T00:41:26.039Z,11.76
2023-05-14T00:44:51.858Z,11.36
2023-05-14T00:48:16.862Z,11.48
2023-05-14T00:51:47.613Z,11.46
2023-05-14T00:55:16.920Z,11.60
2023-05-14T00:58:43.966Z,11.44
2023-05-14T01:02:09.864Z,11.36
2023-05-14T01:05:40.243Z,11.27
2023-05-14T01:09:08.861Z,11.63
2023-05-14T01:12:37.164Z,11.36
2023-05-14T01:16:03.026Z,11.37
2023-05-14T01:19:32.914Z,11.38
2023-05-14T01:23:00.624Z,11.23
2023-05-14T01:26:27.540Z,11.12
2023-05-14T01:29:56.565Z,11.06
2023-05-14T01:33:23.089Z,11.16
2023-05-14T01:36:49.219Z,11.27
2023-05-14T01:40:20.332Z,11.35
2023-05-14T01:43:46.320Z,11.28
2023-05-14T01:47:12.483Z,11.48
2023-05-14T01:50:37.387Z,11.39
2023-05-14T01:54:04.413Z,11.36
2023-05-14T01:57:32.314Z,11.47
2023-05-14T02:00:58.733Z,11.34
2023-05-14T02:04:25.109Z,11.31
2023-05-14T02:07:50.689Z,11.17
2023-05-14T02:11:16.784Z,11.20
2023-05-14T02:14:44.687Z,11.15
2023-05-14T02:18:09.779Z,11.33
2023-05-14T02:21:35.105Z,11.20
2023-05-14T02:25:00.628Z,11.23
2023-05-14T02:28:26.548Z,11.01
2023-05-14T02:31:54.578Z,11.24
2023-05-14T02:35:20.879Z,11.18
2023-05-14T02:38:46.834Z,11.16
2023-05-14T02:42:13.271Z,11.32
2023-05-14T02:45:38.398Z,11.12
2023-05-14T02:49:05.712Z,11.15
2023-05-14T02:52:31.221Z,11.31
2023-05-14T02:55:57.327Z,11.27
2023-05-14T02:59:22.875Z,11.13
2023-05-14T03:02:49.718Z,11.02
2023-05-14T03:06:17.613Z,11.23
2023-05-14T03:09:43.528Z,11.20
2023-05-14T03:13:09.034Z,11.04
2023-05-14T03:16:35.623Z,10.95
2023-05-14T03:20:02.243Z,10.85
2023-05-14T03:23:30.463Z,10.76
2023-05-14T03:26:55.727Z,10.80
2023-05-14T03:30:23.085Z,10.83
2023-05-14T03:33:49.427Z,10.79
2023-05-14T03:37:16.899Z,10.79
2023-05-14T03:40:43.801Z,10.77
2023-05-14T03:44:09.874Z,10.74
2023-05-14T03:47:34.646Z,10.74
2023-05-14T03:50:59.991Z,10.80
2023-05-14T03:54:25.864Z,10.81
2023-05-14T03:57:53.877Z,10.68
2023-05-14T04:01:19.328Z,10.68
2023-05-14T04:04:46.030Z,10.76
2023-05-14T04:08:11.268Z,10.83
2023-05-14T04:11:37.545Z,10.86
2023-05-14T04:15:04.866Z,10.86
2023-05-14T04:18:31.809Z,10.84
2023-05-14T04:21:58.130Z,10.83
2023-05-14T04:25:25.013Z,10.90
2023-05-14T04:28:50.578Z,10.83
2023-05-14T04:32:18.515Z,10.93
2023-05-14T04:35:46.265Z,10.95
2023-05-14T04:39:14.683Z,10.96
2023-05-14T04:42:41.729Z,10.93
2023-05-14T04:46:08.457Z,10.88
2023-05-14T04:49:35.408Z,10.99
2023-05-14T04:53:01.015Z,10.93
2023-05-14T04:56:26.148Z,10.98
2023-05-14T04:59:52.690Z,11.07
2023-05-14T05:03:18.637Z,11.03
2023-05-14T05:06:45.536Z,10.91
2023-05-14T05:10:10.990Z,11.03
2023-05-14T05:13:35.583Z,11.01
2023-05-14T05:16:59.977Z,11.08
2023-05-14T05:20:26.007Z,11.06
2023-05-14T05:23:53.643Z,11.25
2023-05-14T05:27:21.650Z,11.20
2023-05-14T05:30:46.759Z,11.24
2023-05-14T05:34:11.324Z,11.34
2023-05-14T05:37:35.209Z,11.39
2023-05-14T05:41:01.786Z,11.34
2023-05-14T05:44:27.902Z,11.27
2023-05-14T05:47:55.326Z,11.30
2023-05-14T05:51:21.970Z,11.32
2023-05-14T05:54:47.369Z,11.43
2023-05-14T05:58:16.264Z,11.31
2023-05-14T06:01:43.934Z,11.35
2023-05-14T06:05:09.697Z,11.45
2023-05-14T06:08:34.311Z,11.48
2023-05-14T06:11:58.847Z,11.43
2023-05-14T06:15:26.889Z,11.57
2023-05-14T06:18:52.997Z,11.58
2023-05-14T06:22:18.011Z,11.57
2023-05-14T06:25:43.465Z,11.70
2023-05-14T06:29:07.391Z,11.81
2023-05-14T06:32:33.200Z,11.79
2023-05-14T06:35:57.450Z,11.76
2023-05-14T06:39:21.827Z,11.83
2023-05-14T06:42:46.022Z,11.83
2023-05-14T06:46:11.123Z,11.93
2023-05-14T06:49:39.066Z,11.98
2023-05-14T06:53:06.730Z,12.36
2023-05-14T06:56:32.704Z,12.28
2023-05-14T06:59:58.749Z,12.39
2023-05-14T07:03:23.693Z,12.47
2023-05-14T07:06:51.004Z,12.49
2023-05-14T07:10:17.745Z,12.36
2023-05-14T07:13:43.975Z,12.54
2023-05-14T07:17:10.677Z,12.47
2023-05-14T07:20:40.849Z,12.71
2023-05-14T07:24:09.783Z,12.43
2023-05-14T07:27:35.380Z,12.80
2023-05-14T07:31:00.208Z,12.86
2023-05-14T07:34:25.775Z,12.93
2023-05-14T07:37:50.296Z,13.00
2023-05-14T07:41:16.732Z,12.89
2023-05-14T07:44:41.712Z,13.04
2023-05-14T07:48:07.561Z,13.03
2023-05-14T07:51:35.534Z,12.91
2023-05-14T07:55:02.177Z,12.88
2023-05-14T07:58:33.228Z,13.34
2023-05-14T08:02:00.645Z,13.28
2023-05-14T08:05:26.110Z,13.23
2023-05-14T08:08:51.423Z,13.64
2023-05-14T08:12:18.989Z,13.57
2023-05-14T08:15:47.132Z,13.41
2023-05-14T08:19:14.987Z,13.44
2023-05-14T08:22:44.714Z,13.86
2023-05-14T08:26:13.795Z,13.86
2023-05-14T08:29:39.507Z,14.09
2023-05-14T08:33:08.318Z,14.32
2023-05-14T08:36:33.292Z,14.03
2023-05-14T08:39:58.387Z,14.38
2023-05-14T08:43:24.126Z,14.23
2023-05-14T08:46:49.423Z,14.20
2023-05-14T08:50:16.481Z,14.12
2023-05-14T08:53:45.180Z,14.12
2023-05-14T08:57:12.934Z,14.34
2023-05-14T09:00:40.104Z,14.05
2023-05-14T09:04:09.235Z,14.28
2023-05-14T09:07:36.247Z,14.37
2023-05-14T09:11:01.533Z,14.34
2023-05-14T09:14:26.898Z,14.36
2023-05-14T09:17:52.538Z,14.26
2023-05-14T09:21:18.442Z,14.26
2023-05-14T09:24:46.803Z,14.45
2023-05-14T09:28:14.333Z,14.48
2023-05-14T09:31:39.914Z,14.25
2023-05-14T09:35:13.932Z,14.01
2023-05-14T09:38:39.449Z,13.89
2023-05-14T09:42:06.792Z,14.05
2023-05-14T09:45:32.387Z,14.08
2023-05-14T09:48:59.080Z,13.77
2023-05-14T09:52:24.561Z,13.92
2023-05-14T09:55:51.747Z,13.92
2023-05-14T09:59:19.219Z,14.11
2023-05-14T10:02:44.980Z,13.88
2023-05-14T10:06:11.881Z,13.96
2023-05-14T10:09:38.330Z,13.87
2023-05-14T10:13:06.055Z,13.79
2023-05-14T10:16:34.848Z,13.88
2023-05-14T10:20:01.270Z,13.73
2023-05-14T10:23:27.588Z,13.77
2023-05-14T10:26:53.789Z,13.91
2023-05-14T10:30:22.156Z,13.98
2023-05-14T10:33:55.766Z,14.17
2023-05-14T10:37:22.043Z,14.51
2023-05-14T10:40:49.300Z,14.32
2023-05-14T10:44:14.059Z,14.31
2023-05-14T10:47:39.193Z,14.28
2023-05-14T10:51:05.952Z,14.14
2023-05-14T10:54:32.539Z,13.97
2023-05-14T10:57:58.116Z,14.17
2023-05-14T11:01:28.884Z,14.00
2023-05-14T11:05:04.627Z,14.11
2023-05-14T11:08:34.430Z,14.08
2023-05-14T11:12:01.236Z,13.96
2023-05-14T11:15:29.091Z,13.98
2023-05-14T11:18:57.498Z,13.93
2023-05-14T11:22:24.161Z,13.91
2023-05-14T11:25:50.704Z,13.90
2023-05-14T11:29:16.124Z,13.91
2023-05-14T11:32:42.292Z,13.79
2023-05-14T11:36:08.814Z,13.77
2023-05-14T11:39:35.066Z,13.71
2023-05-14T11:43:02.629Z,13.73
2023-05-14T11:46:28.987Z,13.86
2023-05-14T11:49:55.200Z,13.86
2023-05-14T11:53:21.538Z,13.79
2023-05-14T11:56:53.094Z,13.83
2023-05-14T12:00:24.893Z,13.68
2023-05-14T12:03:54.108Z,13.58
2023-05-14T12:07:21.372Z,13.54
2023-05-14T12:10:49.338Z,13.46
2023-05-14T12:14:15.723Z,13.42
2023-05-14T12:17:42.660Z,13.32
2023-05-14T12:21:08.889Z,13.58
2023-05-14T12:24:35.960Z,13.36
2023-05-14T12:28:01.205Z,13.57
2023-05-14T12:31:32.007Z,13.41
2023-05-14T12:34:59.906Z,13.48
2023-05-14T12:38:27.171Z,13.43
2023-05-14T12:41:52.793Z,13.36
2023-05-14T12:45:18.362Z,13.55
2023-05-14T12:48:44.031Z,13.39
2023-05-14T12:55:43.063Z,13.32
2023-05-14T12:59:12.063Z,13.32
2023-05-14T13:02:43.163Z,13.37
2023-05-14T13:06:13.739Z,13.35
2023-05-14T13:09:41.962Z,13.28
2023-05-14T13:13:08.882Z,13.45
2023-05-14T13:16:34.188Z,13.38
2023-05-14T13:20:00.191Z,13.43
2023-05-14T13:23:25.370Z,13.47
2023-05-14T13:26:55.967Z,13.38
2023-05-14T13:30:22.708Z,13.43
2023-05-14T13:33:49.914Z,13.29
2023-05-14T13:37:15.236Z,13.22
2023-05-14T13:40:40.484Z,13.20
2023-05-14T13:44:06.628Z,12.99
2023-05-14T13:47:31.970Z,12.98
2023-05-14T13:50:56.244Z,13.01
2023-05-14T13:54:22.786Z,12.93
2023-05-14T13:57:48.499Z,12.91
2023-05-14T14:01:17.911Z,12.84
2023-05-14T14:04:44.786Z,12.70
2023-05-14T14:08:22.525Z,12.60
2023-05-14T14:11:49.020Z,12.52
2023-05-14T14:15:14.740Z,12.39
2023-05-14T14:18:43.707Z,12.37
2023-05-14T14:22:08.948Z,12.41
2023-05-14T14:25:34.978Z,12.43
2023-05-14T14:29:01.415Z,12.34
2023-05-14T14:32:27.190Z,12.21
2023-05-14T14:35:54.206Z,12.31
2023-05-14T14:39:20.731Z,12.21
2023-05-14T14:42:46.051Z,12.20
2023-05-14T14:46:11.331Z,12.17
2023-05-14T14:49:37.082Z,12.20
2023-05-14T14:53:03.826Z,11.97
2023-05-14T14:56:31.644Z,11.99
2023-05-14T14:59:57.403Z,12.07
2023-05-14T15:03:22.349Z,12.03
2023-05-14T15:06:48.055Z,12.13
2023-05-14T15:10:14.023Z,12.17
2023-05-14T15:13:40.737Z,12.11
2023-05-14T15:17:05.851Z,12.19
2023-05-14T15:20:31.028Z,12.14
2023-05-14T15:23:57.078Z,12.07
2023-05-14T15:27:25.042Z,12.03
2023-05-14T15:30:51.292Z,11.90
2023-05-14T15:34:18.002Z,11.98
2023-05-14T15:37:44.071Z,11.93
2023-05-14T15:41:09.178Z,12.03
2023-05-14T15:44:37.396Z,11.93
2023-05-14T15:48:03.346Z,11.91
2023-05-14T15:51:27.834Z,11.90
2023-05-14T15:54:53.608Z,11.93
2023-05-14T15:58:18.171Z,11.87
2023-05-14T16:01:45.174Z,11.93
2023-05-14T16:05:11.551Z,11.94
2023-05-14T16:08:38.734Z,11.92
2023-05-14T16:12:04.862Z,11.89
2023-05-14T16:15:29.803Z,11.93
2023-05-14T16:18:56.179Z,11.96
2023-05-14T16:22:20.458Z,11.93
2023-05-14T16:25:47.980Z,11.86
2023-05-14T16:29:16.466Z,11.98
2023-05-14T16:32:42.517Z,11.97
2023-05-14T16:36:08.936Z,11.84
2023-05-14T16:39:34.535Z,11.75
2023-05-14T16:42:59.263Z,11.91
2023-05-14T16:46:24.302Z,11.98
2023-05-14T16:49:49.567Z,12.13
2023-05-14T16:53:16.978Z,12.01
2023-05-14T16:56:42.869Z,12.07
2023-05-14T17:00:09.818Z,12.02
2023-05-14T17:03:34.615Z,12.03
2023-05-14T17:06:59.712Z,12.02
2023-05-14T17:10:25.764Z,11.95
2023-05-14T17:13:50.608Z,12.09
2023-05-14T17:17:14.743Z,12.13
2023-05-14T17:20:39.581Z,12.14
2023-05-14T17:24:04.422Z,12.06
2023-05-14T17:27:33.944Z,12.01
2023-05-14T17:30:59.044Z,12.13
2023-05-14T17:34:24.717Z,12.11
2023-05-14T17:37:50.039Z,12.06
2023-05-14T17:41:15.815Z,12.01
2023-05-14T17:44:42.024Z,12.00
2023-05-14T17:48:08.006Z,12.05
2023-05-14T17:51:33.057Z,12.10
2023-05-14T17:54:58.830Z,12.12
2023-05-14T17:58:23.430Z,12.15
2023-05-14T18:01:50.581Z,12.13
2023-05-14T18:05:15.491Z,12.22
2023-05-14T18:08:40.458Z,12.18
2023-05-14T18:12:05.859Z,12.19
2023-05-14T18:15:31.987Z,12.19
2023-05-14T18:18:58.632Z,12.13
2023-05-14T18:22:23.150Z,12.30
2023-05-14T18:25:49.028Z,12.37
2023-05-14T18:29:13.372Z,12.38
2023-05-14T18:32:51.253Z,12.39
2023-05-14T18:36:19.436Z,12.36
2023-05-14T18:39:44.798Z,12.45
2023-05-14T18:43:14.372Z,12.44
2023-05-14T18:46:39.469Z,12.42
2023-05-14T18:50:05.460Z,12.43
2023-05-14T18:53:31.908Z,12.49
2023-05-14T18:56:55.890Z,12.50
2023-05-14T19:00:21.282Z,12.37
2023-05-14T19:03:46.360Z,12.37
2023-05-14T19:07:13.217Z,12.45
2023-05-14T19:14:20.136Z,12.56
2023-05-14T19:17:44.165Z,12.57
2023-05-14T19:21:08.956Z,12.44
2023-05-14T19:24:33.750Z,12.46
2023-05-14T19:28:14.790Z,12.56
2023-05-14T19:31:40.874Z,12.57
2023-05-14T19:35:08.749Z,12.57
2023-05-14T19:38:32.990Z,12.65
2023-05-14T19:41:58.757Z,12.58
2023-05-14T19:45:25.074Z,12.64
2023-05-14T19:48:49.752Z,12.76
2023-05-14T19:52:14.285Z,12.79
2023-05-14T19:55:38.716Z,12.84
2023-05-14T19:59:02.962Z,12.75
2023-05-14T20:02:30.030Z,12.83
2023-05-14T20:05:54.831Z,12.80
2023-05-14T20:09:20.769Z,12.82
2023-05-14T20:12:46.474Z,12.89
2023-05-14T20:16:10.872Z,12.92
2023-05-14T20:19:37.936Z,12.83
2023-05-14T20:23:02.372Z,12.77
2023-05-14T20:26:26.851Z,12.97
2023-05-14T20:29:52.128Z,12.96
2023-05-14T20:33:17.287Z,12.96
2023-05-14T20:36:43.691Z,13.23
2023-05-14T20:40:10.909Z,13.18
2023-05-14T20:43:34.801Z,12.99
2023-05-14T20:46:59.453Z,13.42
2023-05-14T20:50:23.839Z,13.33
2023-05-14T20:53:50.281Z,13.04
2023-05-14T20:57:15.830Z,13.13
2023-05-14T21:00:40.873Z,13.61
2023-05-14T21:04:04.899Z,13.56
2023-05-14T21:07:29.105Z,13.56
2023-05-14T21:10:54.786Z,13.68
2023-05-14T21:14:18.950Z,13.74
2023-05-14T21:17:43.027Z,13.70
2023-05-14T21:21:08.040Z,13.63
2023-05-14T21:24:32.431Z,13.54
2023-05-14T21:27:58.939Z,13.27
2023-05-14T21:31:23.627Z,13.50
2023-05-14T21:34:48.538Z,13.17
2023-05-14T21:38:12.576Z,13.24
2023-05-14T21:41:37.019Z,13.31
2023-05-14T21:45:05.125Z,12.87
2023-05-14T21:48:40.437Z,13.06
2023-05-14T21:52:04.813Z,12.94
2023-05-14T21:55:29.150Z,12.82
2023-05-14T21:58:57.480Z,13.03
2023-05-14T22:02:23.503Z,12.90
2023-05-14T22:05:47.848Z,13.01
2023-05-14T22:09:12.566Z,12.89
2023-05-14T22:12:37.162Z,12.93
2023-05-14T22:16:12.293Z,12.78
2023-05-14T22:19:39.597Z,12.95
2023-05-14T22:23:03.777Z,13.12
2023-05-14T22:26:28.791Z,13.21
2023-05-14T22:29:53.358Z,13.07
2023-05-14T22:33:19.837Z,13.28
2023-05-14T22:36:54.145Z,12.97
2023-05-14T22:40:18.940Z,13.09
2023-05-14T22:43:43.412Z,12.93
2023-05-14T22:47:08.216Z,13.04
2023-05-14T22:50:31.935Z,13.11
2023-05-14T22:53:57.310Z,13.23
2023-05-14T22:57:21.397Z,12.93
2023-05-14T23:00:45.897Z,13.00
2023-05-14T23:04:10.004Z,12.91
2023-05-14T23:07:34.980Z,12.91
2023-05-14T23:11:00.717Z,13.23
2023-05-14T23:14:25.174Z,13.18
2023-05-14T23:17:49.340Z,13.12
2023-05-14T23:21:14.585Z,13.20
2023-05-14T23:24:39.033Z,13.29
2023-05-14T23:28:04.896Z,13.49
2023-05-14T23:31:29.068Z,13.53
2023-05-14T23:34:53.626Z,13.72
2023-05-14T23:38:17.750Z,13.60
2023-05-14T23:41:42.612Z,13.29
2023-05-14T23:45:09.022Z,13.53
2023-05-14T23:48:33.722Z,13.13
2023-05-14T23:51:57.749Z,13.53
2023-05-14T23:55:22.183Z,13.12
2023-05-14T23:58:46.169Z,13.23
